sensor_id;sensor_type;location;lat;lon;timestamp;pressure;altitude;pressure_sealevel;temperature;humidity
41830;BME280;38614;43.472;23.936;2023-07-02T00:01:29;99358.44;;;19.10;nan
41830;BME280;38614;43.472;23.936;2023-07-02T00:04:17;99368.75;;;19.13;nan
41830;BME280;38614;43.472;23.936;2023-07-02T00:07:06;99374.03;;;19.11;nan
41830;BME280;38614;43.472;23.936;2023-07-02T00:09:54;99367.97;;;19.13;nan
41830;BME280;38614;43.472;23.936;2023-07-02T00:12:42;99350.50;;;19.08;nan
41830;BME280;38614;43.472;23.936;2023-07-02T00:15:31;99363.59;;;19.12;nan
41830;BME280;38614;43.472;23.936;2023-07-02T00:18:22;99357.81;;;19.02;nan
41830;BME280;38614;43.472;23.936;2023-07-02T00:21:09;99344.31;;;18.97;nan
41830;BME280;38614;43.472;23.936;2023-07-02T00:24:00;99339.44;;;19.01;nan
41830;BME280;38614;43.472;23.936;2023-07-02T00:26:48;99313.72;;;18.90;nan
41830;BME280;38614;43.472;23.936;2023-07-02T00:29:36;99318.09;;;18.91;nan
41830;BME280;38614;43.472;23.936;2023-07-02T00:32:24;99339.88;;;19.00;nan
41830;BME280;38614;43.472;23.936;2023-07-02T00:35:11;99313.72;;;18.90;nan
41830;BME280;38614;43.472;23.936;2023-07-02T00:38:02;99326.94;;;18.90;nan
41830;BME280;38614;43.472;23.936;2023-07-02T00:40:53;99340.28;;;18.98;nan
41830;BME280;38614;43.472;23.936;2023-07-02T00:43:41;99343.91;;;18.99;nan
41830;BME280;38614;43.472;23.936;2023-07-02T00:46:34;99337.25;;;18.93;nan
41830;BME280;38614;43.472;23.936;2023-07-02T00:49:23;99334.78;;;18.95;nan
41830;BME280;38614;43.472;23.936;2023-07-02T00:52:11;99341.34;;;18.88;nan
41830;BME280;38614;43.472;23.936;2023-07-02T00:54:59;99345.03;;;19.01;nan
41830;BME280;38614;43.472;23.936;2023-07-02T00:57:47;99339.00;;;19.03;nan
41830;BME280;38614;43.472;23.936;2023-07-02T01:00:35;99339.50;;;18.82;nan
41830;BME280;38614;43.472;23.936;2023-07-02T01:03:23;99331.41;;;18.67;nan
41830;BME280;38614;43.472;23.936;2023-07-02T01:06:11;99328.63;;;18.67;nan
41830;BME280;38614;43.472;23.936;2023-07-02T01:09:01;99317.06;;;18.65;nan
41830;BME280;38614;43.472;23.936;2023-07-02T01:11:54;99322.97;;;18.71;nan
41830;BME280;38614;43.472;23.936;2023-07-02T01:14:44;99317.78;;;18.69;nan
41830;BME280;38614;43.472;23.936;2023-07-02T01:17:35;99334.41;;;18.76;nan
41830;BME280;38614;43.472;23.936;2023-07-02T01:20:29;99344.75;;;18.60;nan
41830;BME280;38614;43.472;23.936;2023-07-02T01:23:18;99355.81;;;18.27;nan
41830;BME280;38614;43.472;23.936;2023-07-02T01:26:09;99355.09;;;18.23;nan
41830;BME280;38614;43.472;23.936;2023-07-02T01:28:57;99362.78;;;18.19;nan
41830;BME280;38614;43.472;23.936;2023-07-02T01:31:45;99386.63;;;18.23;nan
41830;BME280;38614;43.472;23.936;2023-07-02T01:34:33;99373.97;;;18.19;nan
41830;BME280;38614;43.472;23.936;2023-07-02T01:37:21;99361.41;;;18.07;nan
41830;BME280;38614;43.472;23.936;2023-07-02T01:40:12;99363.81;;;18.05;nan
41830;BME280;38614;43.472;23.936;2023-07-02T01:42:59;99372.75;;;18.20;nan
41830;BME280;38614;43.472;23.936;2023-07-02T01:45:48;99355.88;;;18.23;nan
41830;BME280;38614;43.472;23.936;2023-07-02T01:48:36;99358.75;;;18.20;nan
41830;BME280;38614;43.472;23.936;2023-07-02T01:51:24;99365.13;;;18.20;nan
41830;BME280;38614;43.472;23.936;2023-07-02T01:54:12;99362.78;;;18.19;nan
41830;BME280;38614;43.472;23.936;2023-07-02T01:57:01;99359.09;;;18.02;nan
41830;BME280;38614;43.472;23.936;2023-07-02T01:59:48;99345.28;;;18.15;nan
41830;BME280;38614;43.472;23.936;2023-07-02T02:02:36;99326.34;;;18.03;nan
41830;BME280;38614;43.472;23.936;2023-07-02T02:05:26;99334.72;;;18.03;nan
41830;BME280;38614;43.472;23.936;2023-07-02T02:08:14;99319.47;;;17.87;nan
41830;BME280;38614;43.472;23.936;2023-07-02T02:11:02;99351.78;;;17.88;nan
41830;BME280;38614;43.472;23.936;2023-07-02T02:13:50;99346.19;;;17.88;nan
41830;BME280;38614;43.472;23.936;2023-07-02T02:16:38;99355.28;;;17.92;nan
41830;BME280;38614;43.472;23.936;2023-07-02T02:19:26;99364.13;;;18.11;nan
41830;BME280;38614;43.472;23.936;2023-07-02T02:22:14;99351.94;;;18.01;nan
41830;BME280;38614;43.472;23.936;2023-07-02T02:25:02;99351.50;;;18.03;nan
41830;BME280;38614;43.472;23.936;2023-07-02T02:27:50;99341.47;;;18.05;nan
41830;BME280;38614;43.472;23.936;2023-07-02T02:30:38;99333.03;;;18.09;nan
41830;BME280;38614;43.472;23.936;2023-07-02T02:33:27;99349.22;;;18.17;nan
41830;BME280;38614;43.472;23.936;2023-07-02T02:36:14;99366.22;;;18.07;nan
41830;BME280;38614;43.472;23.936;2023-07-02T02:39:03;99364.66;;;18.06;nan
41830;BME280;38614;43.472;23.936;2023-07-02T02:41:52;99362.91;;;18.12;nan
41830;BME280;38614;43.472;23.936;2023-07-02T02:44:41;99350.22;;;18.07;nan
41830;BME280;38614;43.472;23.936;2023-07-02T02:47:29;99364.34;;;18.20;nan
41830;BME280;38614;43.472;23.936;2023-07-02T02:50:17;99360.75;;;18.19;nan
41830;BME280;38614;43.472;23.936;2023-07-02T02:53:04;99356.75;;;18.20;nan
41830;BME280;38614;43.472;23.936;2023-07-02T02:55:52;99352.25;;;18.07;nan
41830;BME280;38614;43.472;23.936;2023-07-02T02:58:41;99354.72;;;18.01;nan
41830;BME280;38614;43.472;23.936;2023-07-02T03:01:29;99352.47;;;18.16;nan
41830;BME280;38614;43.472;23.936;2023-07-02T03:04:18;99358.88;;;18.13;nan
41830;BME280;38614;43.472;23.936;2023-07-02T03:07:06;99350.38;;;18.20;nan
41830;BME280;38614;43.472;23.936;2023-07-02T03:09:54;99330.72;;;18.23;nan
41830;BME280;38614;43.472;23.936;2023-07-02T03:12:43;99345.44;;;18.28;nan
41830;BME280;38614;43.472;23.936;2023-07-02T03:15:31;99353.81;;;18.28;nan
41830;BME280;38614;43.472;23.936;2023-07-02T03:18:19;99344.84;;;18.36;nan
41830;BME280;38614;43.472;23.936;2023-07-02T03:21:06;99371.59;;;18.37;nan
41830;BME280;38614;43.472;23.936;2023-07-02T03:23:57;99389.66;;;18.33;nan
41830;BME280;38614;43.472;23.936;2023-07-02T03:26:44;99369.84;;;18.04;nan
41830;BME280;38614;43.472;23.936;2023-07-02T03:29:34;99379.03;;;18.04;nan
41830;BME280;38614;43.472;23.936;2023-07-02T03:32:25;99380.81;;;18.14;nan
41830;BME280;38614;43.472;23.936;2023-07-02T03:35:12;99356.47;;;18.15;nan
41830;BME280;38614;43.472;23.936;2023-07-02T03:38:00;99379.13;;;18.20;nan
41830;BME280;38614;43.472;23.936;2023-07-02T03:40:48;99392.41;;;18.16;nan
41830;BME280;38614;43.472;23.936;2023-07-02T03:43:36;99391.56;;;17.96;nan
41830;BME280;38614;43.472;23.936;2023-07-02T03:46:24;99397.16;;;17.96;nan
41830;BME280;38614;43.472;23.936;2023-07-02T03:49:12;99367.69;;;17.91;nan
41830;BME280;38614;43.472;23.936;2023-07-02T03:52:00;99369.69;;;17.91;nan
41830;BME280;38614;43.472;23.936;2023-07-02T03:54:48;99382.13;;;18.10;nan
41830;BME280;38614;43.472;23.936;2023-07-02T03:57:36;99394.63;;;18.25;nan
41830;BME280;38614;43.472;23.936;2023-07-02T04:00:24;99388.03;;;18.15;nan
41830;BME280;38614;43.472;23.936;2023-07-02T04:03:12;99372.81;;;18.16;nan
41830;BME280;38614;43.472;23.936;2023-07-02T04:06:00;99353.16;;;18.20;nan
41830;BME280;38614;43.472;23.936;2023-07-02T04:08:47;99356.88;;;18.33;nan
41830;BME280;38614;43.472;23.936;2023-07-02T04:11:35;99362.34;;;18.40;nan
41830;BME280;38614;43.472;23.936;2023-07-02T04:14:23;99365.44;;;18.46;nan
41830;BME280;38614;43.472;23.936;2023-07-02T04:17:20;99352.91;;;18.34;nan
41830;BME280;38614;43.472;23.936;2023-07-02T04:20:19;99383.13;;;18.59;nan
41830;BME280;38614;43.472;23.936;2023-07-02T04:23:12;99381.28;;;18.52;nan
41830;BME280;38614;43.472;23.936;2023-07-02T04:26:00;99403.06;;;18.61;nan
41830;BME280;38614;43.472;23.936;2023-07-02T04:28:56;99409.97;;;18.57;nan
41830;BME280;38614;43.472;23.936;2023-07-02T04:31:44;99412.47;;;18.51;nan
41830;BME280;38614;43.472;23.936;2023-07-02T04:34:32;99407.75;;;18.48;nan
41830;BME280;38614;43.472;23.936;2023-07-02T04:37:19;99410.75;;;18.57;nan
41830;BME280;38614;43.472;23.936;2023-07-02T04:40:09;99422.84;;;18.74;nan
41830;BME280;38614;43.472;23.936;2023-07-02T04:42:57;99427.31;;;18.88;nan
41830;BME280;38614;43.472;23.936;2023-07-02T04:45:45;99428.34;;;19.14;nan
41830;BME280;38614;43.472;23.936;2023-07-02T04:48:35;99420.31;;;19.16;nan
41830;BME280;38614;43.472;23.936;2023-07-02T04:51:23;99416.56;;;19.22;nan
41830;BME280;38614;43.472;23.936;2023-07-02T04:54:12;99416.16;;;19.40;nan
41830;BME280;38614;43.472;23.936;2023-07-02T04:57:02;99421.66;;;19.44;nan
41830;BME280;38614;43.472;23.936;2023-07-02T04:59:51;99419.38;;;19.39;nan
41830;BME280;38614;43.472;23.936;2023-07-02T05:02:39;99420.34;;;19.48;nan
41830;BME280;38614;43.472;23.936;2023-07-02T05:05:28;99419.00;;;19.56;nan
41830;BME280;38614;43.472;23.936;2023-07-02T05:08:16;99412.16;;;19.57;nan
41830;BME280;38614;43.472;23.936;2023-07-02T05:11:04;99418.63;;;19.71;nan
41830;BME280;38614;43.472;23.936;2023-07-02T05:13:51;99418.56;;;19.74;nan
41830;BME280;38614;43.472;23.936;2023-07-02T05:16:39;99406.19;;;19.72;nan
41830;BME280;38614;43.472;23.936;2023-07-02T05:19:27;99415.53;;;19.98;nan
41830;BME280;38614;43.472;23.936;2023-07-02T05:22:15;99425.00;;;20.04;nan
41830;BME280;38614;43.472;23.936;2023-07-02T05:25:05;99420.19;;;20.04;nan
41830;BME280;38614;43.472;23.936;2023-07-02T05:27:53;99405.53;;;20.13;nan
41830;BME280;38614;43.472;23.936;2023-07-02T05:30:41;99431.84;;;20.32;nan
41830;BME280;38614;43.472;23.936;2023-07-02T05:33:28;99431.13;;;20.44;nan
41830;BME280;38614;43.472;23.936;2023-07-02T05:36:18;99425.03;;;20.62;nan
41830;BME280;38614;43.472;23.936;2023-07-02T05:39:06;99412.63;;;20.75;nan
41830;BME280;38614;43.472;23.936;2023-07-02T05:41:56;99421.38;;;20.90;nan
41830;BME280;38614;43.472;23.936;2023-07-02T05:44:44;99415.88;;;20.87;nan
41830;BME280;38614;43.472;23.936;2023-07-02T05:47:33;99425.69;;;21.08;nan
41830;BME280;38614;43.472;23.936;2023-07-02T05:50:21;99429.28;;;21.21;nan
41830;BME280;38614;43.472;23.936;2023-07-02T05:53:09;99426.97;;;21.32;nan
41830;BME280;38614;43.472;23.936;2023-07-02T05:55:58;99408.50;;;21.31;nan
41830;BME280;38614;43.472;23.936;2023-07-02T05:58:46;99417.06;;;21.53;nan
41830;BME280;38614;43.472;23.936;2023-07-02T06:01:36;99417.50;;;21.64;nan
41830;BME280;38614;43.472;23.936;2023-07-02T06:04:24;99401.50;;;21.74;nan
41830;BME280;38614;43.472;23.936;2023-07-02T06:07:12;99394.16;;;21.76;nan
41830;BME280;38614;43.472;23.936;2023-07-02T06:09:59;99414.50;;;21.93;nan
41830;BME280;38614;43.472;23.936;2023-07-02T06:12:47;99423.03;;;22.02;nan
41830;BME280;38614;43.472;23.936;2023-07-02T06:15:36;99424.91;;;22.05;nan
41830;BME280;38614;43.472;23.936;2023-07-02T06:18:27;99421.00;;;22.15;nan
41830;BME280;38614;43.472;23.936;2023-07-02T06:21:15;99422.03;;;22.09;nan
41830;BME280;38614;43.472;23.936;2023-07-02T06:24:03;99435.47;;;22.27;nan
41830;BME280;38614;43.472;23.936;2023-07-02T06:26:51;99430.63;;;22.27;nan
41830;BME280;38614;43.472;23.936;2023-07-02T06:29:47;99417.66;;;22.52;nan
41830;BME280;38614;43.472;23.936;2023-07-02T06:32:35;99417.88;;;22.57;nan
41830;BME280;38614;43.472;23.936;2023-07-02T06:35:26;99392.72;;;22.41;nan
41830;BME280;38614;43.472;23.936;2023-07-02T06:38:19;99414.03;;;22.64;nan
41830;BME280;38614;43.472;23.936;2023-07-02T06:41:07;99415.91;;;22.67;nan
41830;BME280;38614;43.472;23.936;2023-07-02T06:43:54;99409.34;;;22.70;nan
41830;BME280;38614;43.472;23.936;2023-07-02T06:46:45;99422.53;;;22.73;nan
41830;BME280;38614;43.472;23.936;2023-07-02T06:49:33;99408.84;;;22.84;nan
41830;BME280;38614;43.472;23.936;2023-07-02T06:52:21;99414.59;;;23.02;nan
41830;BME280;38614;43.472;23.936;2023-07-02T06:55:09;99410.28;;;23.20;nan
41830;BME280;38614;43.472;23.936;2023-07-02T06:57:56;99398.63;;;23.40;nan
41830;BME280;38614;43.472;23.936;2023-07-02T07:00:44;99409.22;;;23.67;nan
41830;BME280;38614;43.472;23.936;2023-07-02T07:03:35;99399.69;;;23.82;nan
41830;BME280;38614;43.472;23.936;2023-07-02T07:06:23;99398.13;;;24.00;nan
41830;BME280;38614;43.472;23.936;2023-07-02T07:09:11;99392.38;;;24.22;nan
41830;BME280;38614;43.472;23.936;2023-07-02T07:11:58;99384.69;;;24.40;nan
41830;BME280;38614;43.472;23.936;2023-07-02T07:14:46;99391.41;;;24.52;nan
41830;BME280;38614;43.472;23.936;2023-07-02T07:17:34;99377.44;;;24.67;nan
41830;BME280;38614;43.472;23.936;2023-07-02T07:20:22;99379.31;;;24.70;nan
41830;BME280;38614;43.472;23.936;2023-07-02T07:23:09;99373.53;;;24.55;nan
41830;BME280;38614;43.472;23.936;2023-07-02T07:25:57;99363.97;;;24.43;nan
41830;BME280;38614;43.472;23.936;2023-07-02T07:28:45;99389.22;;;24.56;nan
41830;BME280;38614;43.472;23.936;2023-07-02T07:31:32;99377.47;;;24.58;nan
41830;BME280;38614;43.472;23.936;2023-07-02T07:34:20;99393.00;;;24.53;nan
41830;BME280;38614;43.472;23.936;2023-07-02T07:37:08;99390.97;;;24.44;nan
41830;BME280;38614;43.472;23.936;2023-07-02T07:39:56;99388.75;;;24.30;nan
41830;BME280;38614;43.472;23.936;2023-07-02T07:42:43;99376.22;;;24.13;nan
41830;BME280;38614;43.472;23.936;2023-07-02T07:45:31;99376.03;;;24.16;nan
41830;BME280;38614;43.472;23.936;2023-07-02T07:48:19;99381.69;;;24.26;nan
41830;BME280;38614;43.472;23.936;2023-07-02T07:51:07;99395.50;;;24.24;nan
41830;BME280;38614;43.472;23.936;2023-07-02T07:53:54;99395.16;;;23.94;nan
41830;BME280;38614;43.472;23.936;2023-07-02T07:56:42;99406.31;;;24.16;nan
41830;BME280;38614;43.472;23.936;2023-07-02T07:59:30;99395.50;;;24.42;nan
41830;BME280;38614;43.472;23.936;2023-07-02T08:02:18;99406.91;;;24.66;nan
41830;BME280;38614;43.472;23.936;2023-07-02T08:05:09;99391.41;;;25.22;nan
41830;BME280;38614;43.472;23.936;2023-07-02T08:07:57;99395.97;;;25.85;nan
41830;BME280;38614;43.472;23.936;2023-07-02T08:10:46;99383.97;;;25.91;nan
41830;BME280;38614;43.472;23.936;2023-07-02T08:13:34;99399.78;;;26.21;nan
41830;BME280;38614;43.472;23.936;2023-07-02T08:16:22;99386.34;;;26.31;nan
41830;BME280;38614;43.472;23.936;2023-07-02T08:19:13;99403.31;;;26.16;nan
41830;BME280;38614;43.472;23.936;2023-07-02T08:22:01;99401.22;;;26.40;nan
41830;BME280;38614;43.472;23.936;2023-07-02T08:24:49;99398.03;;;26.62;nan
41830;BME280;38614;43.472;23.936;2023-07-02T08:27:37;99389.63;;;26.83;nan
41830;BME280;38614;43.472;23.936;2023-07-02T08:30:24;99389.03;;;26.93;nan
41830;BME280;38614;43.472;23.936;2023-07-02T08:33:12;99384.97;;;27.09;nan
41830;BME280;38614;43.472;23.936;2023-07-02T08:36:00;99382.59;;;27.22;nan
41830;BME280;38614;43.472;23.936;2023-07-02T08:38:48;99375.47;;;27.47;nan
41830;BME280;38614;43.472;23.936;2023-07-02T08:41:46;99388.81;;;27.76;nan
41830;BME280;38614;43.472;23.936;2023-07-02T08:44:34;99388.13;;;28.02;nan
41830;BME280;38614;43.472;23.936;2023-07-02T08:47:25;99389.75;;;27.88;nan
41830;BME280;38614;43.472;23.936;2023-07-02T08:50:13;99388.31;;;27.78;nan
41830;BME280;38614;43.472;23.936;2023-07-02T08:53:01;99391.38;;;27.60;nan
41830;BME280;38614;43.472;23.936;2023-07-02T08:55:49;99389.31;;;27.95;nan
41830;BME280;38614;43.472;23.936;2023-07-02T08:58:37;99394.84;;;28.25;nan
41830;BME280;38614;43.472;23.936;2023-07-02T09:01:24;99385.44;;;28.59;nan
41830;BME280;38614;43.472;23.936;2023-07-02T09:04:23;99379.84;;;28.71;nan
41830;BME280;38614;43.472;23.936;2023-07-02T09:07:14;99378.66;;;28.83;nan
41830;BME280;38614;43.472;23.936;2023-07-02T09:10:02;99394.16;;;29.08;nan
41830;BME280;38614;43.472;23.936;2023-07-02T09:12:50;99382.13;;;29.24;nan
41830;BME280;38614;43.472;23.936;2023-07-02T09:15:38;99392.44;;;29.53;nan
41830;BME280;38614;43.472;23.936;2023-07-02T09:18:26;99384.75;;;29.28;nan
41830;BME280;38614;43.472;23.936;2023-07-02T09:21:15;99374.19;;;29.34;nan
41830;BME280;38614;43.472;23.936;2023-07-02T09:24:18;99389.94;;;29.66;nan
41830;BME280;38614;43.472;23.936;2023-07-02T09:27:06;99384.47;;;29.63;nan
41830;BME280;38614;43.472;23.936;2023-07-02T09:29:54;99387.06;;;29.61;nan
41830;BME280;38614;43.472;23.936;2023-07-02T09:32:43;99383.34;;;29.49;nan
41830;BME280;38614;43.472;23.936;2023-07-02T09:35:35;99387.31;;;29.26;nan
41830;BME280;38614;43.472;23.936;2023-07-02T09:38:23;99388.16;;;29.00;nan
41830;BME280;38614;43.472;23.936;2023-07-02T09:41:11;99364.88;;;29.33;nan
41830;BME280;38614;43.472;23.936;2023-07-02T09:44:00;99378.53;;;29.29;nan
41830;BME280;38614;43.472;23.936;2023-07-02T09:49:59;99382.69;;;28.97;nan
41830;BME280;38614;43.472;23.936;2023-07-02T09:52:47;99374.13;;;29.28;nan
41830;BME280;38614;43.472;23.936;2023-07-02T09:55:39;99379.84;;;29.65;nan
41830;BME280;38614;43.472;23.936;2023-07-02T09:58:28;99370.81;;;29.78;nan
41830;BME280;38614;43.472;23.936;2023-07-02T10:01:19;99387.25;;;30.00;nan
41830;BME280;38614;43.472;23.936;2023-07-02T10:04:13;99368.16;;;30.12;nan
41830;BME280;38614;43.472;23.936;2023-07-02T10:07:01;99376.19;;;30.13;nan
41830;BME280;38614;43.472;23.936;2023-07-02T10:09:49;99377.69;;;29.55;nan
41830;BME280;38614;43.472;23.936;2023-07-02T10:12:45;99370.31;;;28.74;nan
41830;BME280;38614;43.472;23.936;2023-07-02T10:15:33;99388.53;;;28.87;nan
41830;BME280;38614;43.472;23.936;2023-07-02T10:18:26;99379.31;;;29.30;nan
41830;BME280;38614;43.472;23.936;2023-07-02T10:21:17;99367.09;;;29.55;nan
41830;BME280;38614;43.472;23.936;2023-07-02T10:24:10;99365.59;;;29.60;nan
41830;BME280;38614;43.472;23.936;2023-07-02T10:27:00;99379.31;;;29.67;nan
41830;BME280;38614;43.472;23.936;2023-07-02T10:29:50;99363.78;;;29.68;nan
41830;BME280;38614;43.472;23.936;2023-07-02T10:32:38;99366.94;;;29.75;nan
41830;BME280;38614;43.472;23.936;2023-07-02T10:35:32;99369.91;;;30.03;nan
41830;BME280;38614;43.472;23.936;2023-07-02T10:38:24;99370.22;;;30.11;nan
41830;BME280;38614;43.472;23.936;2023-07-02T10:41:26;99345.03;;;29.98;nan
41830;BME280;38614;43.472;23.936;2023-07-02T10:44:13;99360.69;;;30.31;nan
41830;BME280;38614;43.472;23.936;2023-07-02T10:47:03;99365.47;;;30.73;nan
41830;BME280;38614;43.472;23.936;2023-07-02T10:49:51;99348.56;;;30.58;nan
41830;BME280;38614;43.472;23.936;2023-07-02T10:52:39;99343.13;;;30.44;nan
41830;BME280;38614;43.472;23.936;2023-07-02T10:55:29;99345.19;;;30.49;nan
41830;BME280;38614;43.472;23.936;2023-07-02T10:58:18;99342.81;;;30.30;nan
41830;BME280;38614;43.472;23.936;2023-07-02T11:01:06;99355.25;;;30.33;nan
41830;BME280;38614;43.472;23.936;2023-07-02T11:03:58;99364.34;;;30.26;nan
41830;BME280;38614;43.472;23.936;2023-07-02T11:06:47;99329.00;;;30.01;nan
41830;BME280;38614;43.472;23.936;2023-07-02T11:09:35;99358.88;;;30.22;nan
41830;BME280;38614;43.472;23.936;2023-07-02T11:12:32;99360.25;;;30.55;nan
41830;BME280;38614;43.472;23.936;2023-07-02T11:15:20;99361.59;;;30.76;nan
41830;BME280;38614;43.472;23.936;2023-07-02T11:18:14;99369.56;;;30.44;nan
41830;BME280;38614;43.472;23.936;2023-07-02T11:21:09;99354.19;;;30.08;nan
41830;BME280;38614;43.472;23.936;2023-07-02T11:24:05;99353.41;;;30.07;nan
41830;BME280;38614;43.472;23.936;2023-07-02T11:26:54;99354.38;;;30.04;nan
41830;BME280;38614;43.472;23.936;2023-07-02T11:29:41;99352.88;;;30.15;nan
41830;BME280;38614;43.472;23.936;2023-07-02T11:32:29;99359.16;;;30.41;nan
41830;BME280;38614;43.472;23.936;2023-07-02T11:35:17;99355.56;;;30.46;nan
41830;BME280;38614;43.472;23.936;2023-07-02T11:38:05;99349.13;;;30.68;nan
41830;BME280;38614;43.472;23.936;2023-07-02T11:40:54;99348.91;;;30.72;nan
41830;BME280;38614;43.472;23.936;2023-07-02T11:43:41;99356.34;;;30.47;nan
41830;BME280;38614;43.472;23.936;2023-07-02T11:46:29;99344.75;;;29.91;nan
41830;BME280;38614;43.472;23.936;2023-07-02T11:49:17;99330.63;;;29.59;nan
41830;BME280;38614;43.472;23.936;2023-07-02T11:52:05;99340.94;;;29.51;nan
41830;BME280;38614;43.472;23.936;2023-07-02T11:54:52;99349.69;;;29.47;nan
41830;BME280;38614;43.472;23.936;2023-07-02T11:57:40;99336.72;;;29.04;nan
41830;BME280;38614;43.472;23.936;2023-07-02T12:00:30;99351.16;;;28.94;nan
41830;BME280;38614;43.472;23.936;2023-07-02T12:03:18;99360.72;;;28.71;nan
41830;BME280;38614;43.472;23.936;2023-07-02T12:06:06;99355.47;;;28.38;nan
41830;BME280;38614;43.472;23.936;2023-07-02T12:08:53;99354.94;;;28.34;nan
41830;BME280;38614;43.472;23.936;2023-07-02T12:11:41;99361.03;;;28.27;nan
41830;BME280;38614;43.472;23.936;2023-07-02T12:14:29;99370.13;;;28.10;nan
41830;BME280;38614;43.472;23.936;2023-07-02T12:17:17;99340.31;;;28.00;nan
41830;BME280;38614;43.472;23.936;2023-07-02T12:20:05;99374.69;;;28.02;nan
41830;BME280;38614;43.472;23.936;2023-07-02T12:22:53;99370.13;;;28.10;nan
41830;BME280;38614;43.472;23.936;2023-07-02T12:25:40;99360.13;;;28.15;nan
41830;BME280;38614;43.472;23.936;2023-07-02T12:28:28;99362.09;;;28.09;nan
41830;BME280;38614;43.472;23.936;2023-07-02T12:31:16;99358.56;;;28.14;nan
41830;BME280;38614;43.472;23.936;2023-07-02T12:34:03;99345.22;;;28.46;nan
41830;BME280;38614;43.472;23.936;2023-07-02T12:36:51;99344.25;;;28.49;nan
41830;BME280;38614;43.472;23.936;2023-07-02T12:39:39;99344.97;;;28.44;nan
41830;BME280;38614;43.472;23.936;2023-07-02T12:42:27;99337.00;;;28.48;nan
41830;BME280;38614;43.472;23.936;2023-07-02T12:45:14;99334.44;;;28.50;nan
41830;BME280;38614;43.472;23.936;2023-07-02T12:48:04;99344.97;;;28.44;nan
41830;BME280;38614;43.472;23.936;2023-07-02T12:50:59;99338.13;;;28.30;nan
41830;BME280;38614;43.472;23.936;2023-07-02T12:53:50;99336.78;;;28.52;nan
41830;BME280;38614;43.472;23.936;2023-07-02T12:56:38;99339.97;;;28.65;nan
41830;BME280;38614;43.472;23.936;2023-07-02T12:59:26;99342.88;;;28.97;nan
41830;BME280;38614;43.472;23.936;2023-07-02T13:02:14;99343.75;;;29.08;nan
41830;BME280;38614;43.472;23.936;2023-07-02T13:05:02;99339.78;;;29.00;nan
41830;BME280;38614;43.472;23.936;2023-07-02T13:07:51;99351.31;;;28.85;nan
41830;BME280;38614;43.472;23.936;2023-07-02T13:10:39;99339.41;;;28.87;nan
41830;BME280;38614;43.472;23.936;2023-07-02T13:13:28;99341.94;;;29.11;nan
41830;BME280;38614;43.472;23.936;2023-07-02T13:16:16;99349.78;;;29.21;nan
41830;BME280;38614;43.472;23.936;2023-07-02T13:19:04;99350.78;;;28.87;nan
41830;BME280;38614;43.472;23.936;2023-07-02T13:21:52;99340.09;;;28.76;nan
41830;BME280;38614;43.472;23.936;2023-07-02T13:24:39;99326.75;;;29.19;nan
41830;BME280;38614;43.472;23.936;2023-07-02T13:27:27;99332.78;;;29.33;nan
41830;BME280;38614;43.472;23.936;2023-07-02T13:30:15;99337.91;;;29.23;nan
41830;BME280;38614;43.472;23.936;2023-07-02T13:33:06;99324.53;;;28.98;nan
41830;BME280;38614;43.472;23.936;2023-07-02T13:35:53;99326.59;;;28.97;nan
41830;BME280;38614;43.472;23.936;2023-07-02T13:38:44;99327.06;;;29.27;nan
41830;BME280;38614;43.472;23.936;2023-07-02T13:41:31;99325.94;;;29.56;nan
41830;BME280;38614;43.472;23.936;2023-07-02T13:44:19;99331.91;;;29.58;nan
41830;BME280;38614;43.472;23.936;2023-07-02T13:47:07;99341.13;;;29.47;nan
41830;BME280;38614;43.472;23.936;2023-07-02T13:49:55;99316.50;;;29.39;nan
41830;BME280;38614;43.472;23.936;2023-07-02T13:52:43;99338.16;;;29.68;nan
41830;BME280;38614;43.472;23.936;2023-07-02T13:55:31;99339.31;;;29.44;nan
41830;BME280;38614;43.472;23.936;2023-07-02T13:58:19;99343.75;;;29.08;nan
41830;BME280;38614;43.472;23.936;2023-07-02T14:01:15;99331.56;;;28.76;nan
41830;BME280;38614;43.472;23.936;2023-07-02T14:04:03;99347.06;;;28.75;nan
41830;BME280;38614;43.472;23.936;2023-07-02T14:06:51;99346.09;;;28.84;nan
41830;BME280;38614;43.472;23.936;2023-07-02T14:09:41;99342.38;;;28.98;nan
41830;BME280;38614;43.472;23.936;2023-07-02T14:12:29;99343.13;;;28.67;nan
41830;BME280;38614;43.472;23.936;2023-07-02T14:15:21;99327.50;;;28.57;nan
41830;BME280;38614;43.472;23.936;2023-07-02T14:18:10;99336.75;;;28.78;nan
41830;BME280;38614;43.472;23.936;2023-07-02T14:21:01;99326.16;;;29.10;nan
41830;BME280;38614;43.472;23.936;2023-07-02T14:23:50;99335.00;;;29.17;nan
41830;BME280;38614;43.472;23.936;2023-07-02T14:26:38;99328.03;;;28.87;nan
41830;BME280;38614;43.472;23.936;2023-07-02T14:29:28;99325.97;;;28.87;nan
41830;BME280;38614;43.472;23.936;2023-07-02T14:32:19;99313.66;;;28.96;nan
41830;BME280;38614;43.472;23.936;2023-07-02T14:35:07;99321.06;;;28.88;nan
41830;BME280;38614;43.472;23.936;2023-07-02T14:37:55;99289.53;;;28.28;nan
41830;BME280;38614;43.472;23.936;2023-07-02T14:40:43;99339.97;;;28.91;nan
41830;BME280;38614;43.472;23.936;2023-07-02T14:43:31;99340.75;;;29.23;nan
41830;BME280;38614;43.472;23.936;2023-07-02T14:46:19;99339.06;;;29.05;nan
41830;BME280;38614;43.472;23.936;2023-07-02T14:49:07;99336.47;;;28.76;nan
41830;BME280;38614;43.472;23.936;2023-07-02T14:52:04;99333.75;;;28.61;nan
41830;BME280;38614;43.472;23.936;2023-07-02T14:54:52;99342.19;;;28.50;nan
41830;BME280;38614;43.472;23.936;2023-07-02T14:57:40;99348.06;;;28.20;nan
41830;BME280;38614;43.472;23.936;2023-07-02T15:00:28;99339.75;;;27.96;nan
41830;BME280;38614;43.472;23.936;2023-07-02T15:03:17;99335.06;;;28.14;nan
41830;BME280;38614;43.472;23.936;2023-07-02T15:06:17;99333.59;;;28.44;nan
41830;BME280;38614;43.472;23.936;2023-07-02T15:09:05;99344.25;;;28.49;nan